sensor_id;sensor_type;location;lat;lon;timestamp;P1;durP1;ratioP1;P2;durP2;ratioP2
59302;SDS011;45074;52.764;6.896;2023-07-30T00:01:57;11.15;;;4.10;;
59302;SDS011;45074;52.764;6.896;2023-07-30T00:04:24;11.43;;;4.10;;
59302;SDS011;45074;52.764;6.896;2023-07-30T00:06:50;10.73;;;4.40;;
59302;SDS011;45074;52.764;6.896;2023-07-30T00:09:15;12.75;;;4.60;;
59302;SDS011;45074;52.764;6.896;2023-07-30T00:11:41;9.68;;;4.22;;
59302;SDS011;45074;52.764;6.896;2023-07-30T00:14:07;10.15;;;4.32;;
59302;SDS011;45074;52.764;6.896;2023-07-30T00:16:32;9.63;;;4.38;;
59302;SDS011;45074;52.764;6.896;2023-07-30T00:18:58;8.38;;;4.03;;
59302;SDS011;45074;52.764;6.896;2023-07-30T00:21:24;11.23;;;4.53;;
59302;SDS011;45074;52.764;6.896;2023-07-30T00:23:49;11.60;;;4.22;;
59302;SDS011;45074;52.764;6.896;2023-07-30T00:26:15;11.25;;;4.72;;
59302;SDS011;45074;52.764;6.896;2023-07-30T00:28:41;12.40;;;4.47;;
59302;SDS011;45074;52.764;6.896;2023-07-30T00:31:07;10.65;;;4.22;;
59302;SDS011;45074;52.764;6.896;2023-07-30T00:33:33;9.45;;;3.95;;
59302;SDS011;45074;52.764;6.896;2023-07-30T00:35:59;9.57;;;4.15;;
59302;SDS011;45074;52.764;6.896;2023-07-30T00:38:25;15.27;;;4.40;;
59302;SDS011;45074;52.764;6.896;2023-07-30T00:40:51;15.82;;;4.50;;
59302;SDS011;45074;52.764;6.896;2023-07-30T00:43:17;12.60;;;4.05;;
59302;SDS011;45074;52.764;6.896;2023-07-30T00:45:43;14.20;;;4.32;;
59302;SDS011;45074;52.764;6.896;2023-07-30T00:48:10;11.32;;;4.20;;
59302;SDS011;45074;52.764;6.896;2023-07-30T00:50:38;12.13;;;3.42;;
59302;SDS011;45074;52.764;6.896;2023-07-30T00:53:04;10.18;;;3.92;;
59302;SDS011;45074;52.764;6.896;2023-07-30T00:55:30;9.13;;;3.70;;
59302;SDS011;45074;52.764;6.896;2023-07-30T00:57:56;9.48;;;4.00;;
59302;SDS011;45074;52.764;6.896;2023-07-30T01:00:23;10.80;;;3.97;;
59302;SDS011;45074;52.764;6.896;2023-07-30T01:02:50;11.50;;;3.90;;
59302;SDS011;45074;52.764;6.896;2023-07-30T01:05:16;10.65;;;4.35;;
59302;SDS011;45074;52.764;6.896;2023-07-30T01:07:42;10.35;;;3.65;;
59302;SDS011;45074;52.764;6.896;2023-07-30T01:10:08;15.40;;;4.10;;
59302;SDS011;45074;52.764;6.896;2023-07-30T01:12:34;10.77;;;3.75;;
59302;SDS011;45074;52.764;6.896;2023-07-30T01:15:02;7.85;;;3.85;;
59302;SDS011;45074;52.764;6.896;2023-07-30T01:17:29;13.02;;;4.55;;
59302;SDS011;45074;52.764;6.896;2023-07-30T01:19:55;10.45;;;3.97;;
59302;SDS011;45074;52.764;6.896;2023-07-30T01:22:22;12.52;;;4.20;;
59302;SDS011;45074;52.764;6.896;2023-07-30T01:24:48;11.77;;;4.10;;
59302;SDS011;45074;52.764;6.896;2023-07-30T01:27:16;11.80;;;3.67;;
59302;SDS011;45074;52.764;6.896;2023-07-30T01:29:48;11.07;;;3.88;;
59302;SDS011;45074;52.764;6.896;2023-07-30T01:32:20;12.15;;;3.95;;
59302;SDS011;45074;52.764;6.896;2023-07-30T01:34:49;12.32;;;3.60;;
59302;SDS011;45074;52.764;6.896;2023-07-30T01:37:18;12.60;;;3.83;;
59302;SDS011;45074;52.764;6.896;2023-07-30T01:39:44;9.35;;;3.50;;
59302;SDS011;45074;52.764;6.896;2023-07-30T01:42:12;11.10;;;4.00;;
59302;SDS011;45074;52.764;6.896;2023-07-30T01:44:38;11.00;;;4.10;;
59302;SDS011;45074;52.764;6.896;2023-07-30T01:47:04;14.93;;;3.80;;
59302;SDS011;45074;52.764;6.896;2023-07-30T01:49:30;9.65;;;3.45;;
59302;SDS011;45074;52.764;6.896;2023-07-30T01:51:56;13.75;;;3.55;;
59302;SDS011;45074;52.764;6.896;2023-07-30T01:54:22;11.32;;;3.85;;
59302;SDS011;45074;52.764;6.896;2023-07-30T01:56:48;7.28;;;3.17;;
59302;SDS011;45074;52.764;6.896;2023-07-30T01:59:14;10.80;;;3.47;;
59302;SDS011;45074;52.764;6.896;2023-07-30T02:01:41;13.70;;;3.90;;
59302;SDS011;45074;52.764;6.896;2023-07-30T02:04:07;11.57;;;3.80;;
59302;SDS011;45074;52.764;6.896;2023-07-30T02:06:33;13.32;;;4.18;;
59302;SDS011;45074;52.764;6.896;2023-07-30T02:08:59;10.88;;;3.00;;
59302;SDS011;45074;52.764;6.896;2023-07-30T02:11:25;8.88;;;3.13;;
59302;SDS011;45074;52.764;6.896;2023-07-30T02:13:51;15.85;;;3.45;;
59302;SDS011;45074;52.764;6.896;2023-07-30T02:16:17;9.43;;;3.13;;
59302;SDS011;45074;52.764;6.896;2023-07-30T02:18:43;11.18;;;3.38;;
59302;SDS011;45074;52.764;6.896;2023-07-30T02:21:09;12.82;;;3.03;;
59302;SDS011;45074;52.764;6.896;2023-07-30T02:23:35;8.85;;;3.00;;
59302;SDS011;45074;52.764;6.896;2023-07-30T02:26:01;12.48;;;3.08;;
59302;SDS011;45074;52.764;6.896;2023-07-30T02:28:27;9.52;;;2.72;;
59302;SDS011;45074;52.764;6.896;2023-07-30T02:30:53;11.93;;;3.25;;
59302;SDS011;45074;52.764;6.896;2023-07-30T02:33:19;8.18;;;2.67;;
59302;SDS011;45074;52.764;6.896;2023-07-30T02:35:45;10.20;;;2.83;;
59302;SDS011;45074;52.764;6.896;2023-07-30T02:38:11;8.85;;;2.70;;
59302;SDS011;45074;52.764;6.896;2023-07-30T02:40:37;12.25;;;3.30;;
59302;SDS011;45074;52.764;6.896;2023-07-30T02:43:03;12.93;;;3.00;;
59302;SDS011;45074;52.764;6.896;2023-07-30T02:45:29;8.40;;;2.72;;
59302;SDS011;45074;52.764;6.896;2023-07-30T02:47:55;8.32;;;2.92;;
59302;SDS011;45074;52.764;6.896;2023-07-30T02:50:21;10.23;;;2.95;;
59302;SDS011;45074;52.764;6.896;2023-07-30T02:52:47;9.05;;;2.85;;
59302;SDS011;45074;52.764;6.896;2023-07-30T02:55:13;10.32;;;2.90;;
59302;SDS011;45074;52.764;6.896;2023-07-30T02:57:41;10.55;;;3.30;;
59302;SDS011;45074;52.764;6.896;2023-07-30T03:00:07;9.80;;;3.33;;
59302;SDS011;45074;52.764;6.896;2023-07-30T03:02:36;7.10;;;2.78;;
59302;SDS011;45074;52.764;6.896;2023-07-30T03:05:02;9.63;;;2.95;;
59302;SDS011;45074;52.764;6.896;2023-07-30T03:07:28;9.63;;;3.25;;
59302;SDS011;45074;52.764;6.896;2023-07-30T03:09:54;8.40;;;3.08;;
59302;SDS011;45074;52.764;6.896;2023-07-30T03:12:20;9.90;;;3.30;;
59302;SDS011;45074;52.764;6.896;2023-07-30T03:14:46;12.20;;;3.47;;
59302;SDS011;45074;52.764;6.896;2023-07-30T03:17:12;9.18;;;3.10;;
59302;SDS011;45074;52.764;6.896;2023-07-30T03:19:38;12.10;;;3.65;;
59302;SDS011;45074;52.764;6.896;2023-07-30T03:22:04;10.32;;;3.67;;
59302;SDS011;45074;52.764;6.896;2023-07-30T03:24:30;9.85;;;3.55;;
59302;SDS011;45074;52.764;6.896;2023-07-30T03:26:56;8.40;;;3.30;;
59302;SDS011;45074;52.764;6.896;2023-07-30T03:29:22;12.95;;;4.25;;
59302;SDS011;45074;52.764;6.896;2023-07-30T03:31:48;8.98;;;3.50;;
59302;SDS011;45074;52.764;6.896;2023-07-30T03:34:14;7.78;;;3.35;;
59302;SDS011;45074;52.764;6.896;2023-07-30T03:36:40;16.65;;;3.70;;
59302;SDS011;45074;52.764;6.896;2023-07-30T03:39:06;9.90;;;3.80;;
59302;SDS011;45074;52.764;6.896;2023-07-30T03:41:32;9.52;;;3.42;;
59302;SDS011;45074;52.764;6.896;2023-07-30T03:43:58;9.93;;;3.50;;
59302;SDS011;45074;52.764;6.896;2023-07-30T03:46:24;10.25;;;3.88;;
59302;SDS011;45074;52.764;6.896;2023-07-30T03:48:50;9.15;;;3.65;;
59302;SDS011;45074;52.764;6.896;2023-07-30T03:51:16;11.48;;;3.85;;
59302;SDS011;45074;52.764;6.896;2023-07-30T03:53:42;12.32;;;3.90;;
59302;SDS011;45074;52.764;6.896;2023-07-30T03:56:08;11.85;;;4.22;;
59302;SDS011;45074;52.764;6.896;2023-07-30T03:58:34;13.02;;;3.88;;
59302;SDS011;45074;52.764;6.896;2023-07-30T04:01:01;11.60;;;3.80;;
59302;SDS011;45074;52.764;6.896;2023-07-30T04:03:27;10.75;;;3.72;;
59302;SDS011;45074;52.764;6.896;2023-07-30T04:05:53;11.80;;;4.10;;
59302;SDS011;45074;52.764;6.896;2023-07-30T04:08:19;10.52;;;3.80;;
59302;SDS011;45074;52.764;6.896;2023-07-30T04:10:46;10.60;;;3.72;;
59302;SDS011;45074;52.764;6.896;2023-07-30T04:13:12;11.25;;;3.90;;
59302;SDS011;45074;52.764;6.896;2023-07-30T04:15:38;11.38;;;4.05;;
59302;SDS011;45074;52.764;6.896;2023-07-30T04:18:04;10.93;;;4.13;;
59302;SDS011;45074;52.764;6.896;2023-07-30T04:20:29;9.55;;;3.90;;
59302;SDS011;45074;52.764;6.896;2023-07-30T04:22:55;10.88;;;4.25;;
59302;SDS011;45074;52.764;6.896;2023-07-30T04:25:22;11.00;;;4.18;;
59302;SDS011;45074;52.764;6.896;2023-07-30T04:27:48;9.90;;;3.90;;
59302;SDS011;45074;52.764;6.896;2023-07-30T04:30:14;9.85;;;3.80;;
59302;SDS011;45074;52.764;6.896;2023-07-30T04:32:40;10.30;;;4.18;;
59302;SDS011;45074;52.764;6.896;2023-07-30T04:35:06;12.85;;;4.00;;
59302;SDS011;45074;52.764;6.896;2023-07-30T04:37:32;11.57;;;4.20;;
59302;SDS011;45074;52.764;6.896;2023-07-30T04:39:58;12.18;;;4.63;;
59302;SDS011;45074;52.764;6.896;2023-07-30T04:42:24;14.25;;;4.28;;
59302;SDS011;45074;52.764;6.896;2023-07-30T04:44:50;11.95;;;4.30;;
59302;SDS011;45074;52.764;6.896;2023-07-30T04:47:16;13.68;;;4.78;;
59302;SDS011;45074;52.764;6.896;2023-07-30T04:49:42;13.43;;;5.68;;
59302;SDS011;45074;52.764;6.896;2023-07-30T04:52:08;11.35;;;5.32;;
59302;SDS011;45074;52.764;6.896;2023-07-30T04:54:35;12.90;;;4.47;;
59302;SDS011;45074;52.764;6.896;2023-07-30T04:57:01;13.00;;;4.68;;
59302;SDS011;45074;52.764;6.896;2023-07-30T04:59:27;15.50;;;4.40;;
59302;SDS011;45074;52.764;6.896;2023-07-30T05:01:53;13.35;;;4.72;;
59302;SDS011;45074;52.764;6.896;2023-07-30T05:04:19;12.95;;;4.47;;
59302;SDS011;45074;52.764;6.896;2023-07-30T05:06:45;12.60;;;4.57;;
59302;SDS011;45074;52.764;6.896;2023-07-30T05:09:11;15.30;;;4.50;;
59302;SDS011;45074;52.764;6.896;2023-07-30T05:11:40;14.52;;;4.60;;
59302;SDS011;45074;52.764;6.896;2023-07-30T05:14:06;11.40;;;3.90;;
59302;SDS011;45074;52.764;6.896;2023-07-30T05:16:32;11.55;;;3.90;;
59302;SDS011;45074;52.764;6.896;2023-07-30T05:18:58;11.60;;;4.00;;
59302;SDS011;45074;52.764;6.896;2023-07-30T05:21:24;13.57;;;4.30;;
59302;SDS011;45074;52.764;6.896;2023-07-30T05:23:50;16.73;;;4.53;;
59302;SDS011;45074;52.764;6.896;2023-07-30T05:26:16;10.80;;;4.45;;
59302;SDS011;45074;52.764;6.896;2023-07-30T05:28:42;13.55;;;4.15;;
59302;SDS011;45074;52.764;6.896;2023-07-30T05:31:08;14.30;;;5.20;;
59302;SDS011;45074;52.764;6.896;2023-07-30T05:33:34;14.23;;;5.53;;
59302;SDS011;45074;52.764;6.896;2023-07-30T05:36:00;16.20;;;5.05;;
59302;SDS011;45074;52.764;6.896;2023-07-30T05:38:26;11.23;;;4.82;;
59302;SDS011;45074;52.764;6.896;2023-07-30T05:40:52;16.30;;;5.65;;
59302;SDS011;45074;52.764;6.896;2023-07-30T05:43:18;17.50;;;5.05;;
59302;SDS011;45074;52.764;6.896;2023-07-30T05:45:44;14.75;;;5.30;;
59302;SDS011;45074;52.764;6.896;2023-07-30T05:48:10;14.40;;;4.63;;
59302;SDS011;45074;52.764;6.896;2023-07-30T05:50:36;20.00;;;4.90;;
59302;SDS011;45074;52.764;6.896;2023-07-30T05:53:02;11.90;;;4.45;;
59302;SDS011;45074;52.764;6.896;2023-07-30T05:55:28;12.77;;;4.72;;
59302;SDS011;45074;52.764;6.896;2023-07-30T05:57:55;15.55;;;4.65;;
59302;SDS011;45074;52.764;6.896;2023-07-30T06:00:21;13.30;;;4.90;;
59302;SDS011;45074;52.764;6.896;2023-07-30T06:02:47;14.65;;;4.75;;
59302;SDS011;45074;52.764;6.896;2023-07-30T06:05:13;16.85;;;6.30;;
59302;SDS011;45074;52.764;6.896;2023-07-30T06:07:39;15.05;;;5.28;;
59302;SDS011;45074;52.764;6.896;2023-07-30T06:10:05;15.02;;;5.88;;
59302;SDS011;45074;52.764;6.896;2023-07-30T06:12:31;16.77;;;5.85;;
59302;SDS011;45074;52.764;6.896;2023-07-30T06:14:57;15.82;;;5.60;;
59302;SDS011;45074;52.764;6.896;2023-07-30T06:17:23;16.92;;;5.15;;
59302;SDS011;45074;52.764;6.896;2023-07-30T06:19:49;12.88;;;4.82;;
59302;SDS011;45074;52.764;6.896;2023-07-30T06:22:15;13.77;;;4.43;;
59302;SDS011;45074;52.764;6.896;2023-07-30T06:24:41;13.02;;;4.82;;
59302;SDS011;45074;52.764;6.896;2023-07-30T06:27:07;16.17;;;5.95;;
59302;SDS011;45074;52.764;6.896;2023-07-30T06:29:34;16.45;;;6.05;;
59302;SDS011;45074;52.764;6.896;2023-07-30T06:32:00;16.05;;;6.18;;
59302;SDS011;45074;52.764;6.896;2023-07-30T06:34:26;12.98;;;5.38;;
59302;SDS011;45074;52.764;6.896;2023-07-30T06:36:52;16.73;;;6.35;;
59302;SDS011;45074;52.764;6.896;2023-07-30T06:39:18;13.90;;;4.60;;
59302;SDS011;45074;52.764;6.896;2023-07-30T06:41:44;17.52;;;5.63;;
59302;SDS011;45074;52.764;6.896;2023-07-30T06:44:10;15.13;;;5.03;;
59302;SDS011;45074;52.764;6.896;2023-07-30T06:46:36;14.20;;;5.15;;
59302;SDS011;45074;52.764;6.896;2023-07-30T06:49:02;14.65;;;5.13;;
59302;SDS011;45074;52.764;6.896;2023-07-30T06:51:28;12.98;;;5.00;;
59302;SDS011;45074;52.764;6.896;2023-07-30T06:53:55;14.30;;;5.20;;
59302;SDS011;45074;52.764;6.896;2023-07-30T06:56:21;21.85;;;5.80;;
59302;SDS011;45074;52.764;6.896;2023-07-30T06:58:48;17.20;;;5.03;;
59302;SDS011;45074;52.764;6.896;2023-07-30T07:01:14;14.43;;;5.13;;
59302;SDS011;45074;52.764;6.896;2023-07-30T07:03:40;14.25;;;5.25;;
59302;SDS011;45074;52.764;6.896;2023-07-30T07:06:06;17.88;;;5.57;;
59302;SDS011;45074;52.764;6.896;2023-07-30T07:08:32;17.65;;;5.75;;
59302;SDS011;45074;52.764;6.896;2023-07-30T07:10:58;16.15;;;5.40;;
59302;SDS011;45074;52.764;6.896;2023-07-30T07:13:24;17.48;;;5.88;;
59302;SDS011;45074;52.764;6.896;2023-07-30T07:15:50;16.20;;;5.10;;
59302;SDS011;45074;52.764;6.896;2023-07-30T07:18:17;16.95;;;5.65;;
59302;SDS011;45074;52.764;6.896;2023-07-30T07:20:43;16.20;;;5.90;;
59302;SDS011;45074;52.764;6.896;2023-07-30T07:23:09;14.88;;;4.75;;
59302;SDS011;45074;52.764;6.896;2023-07-30T07:25:35;17.45;;;5.55;;
59302;SDS011;45074;52.764;6.896;2023-07-30T07:28:02;18.73;;;5.75;;
59302;SDS011;45074;52.764;6.896;2023-07-30T07:30:28;18.95;;;5.53;;
59302;SDS011;45074;52.764;6.896;2023-07-30T07:32:54;14.82;;;5.38;;
59302;SDS011;45074;52.764;6.896;2023-07-30T07:35:20;15.85;;;4.90;;
59302;SDS011;45074;52.764;6.896;2023-07-30T07:37:47;15.75;;;5.43;;
59302;SDS011;45074;52.764;6.896;2023-07-30T07:40:13;15.68;;;5.28;;
59302;SDS011;45074;52.764;6.896;2023-07-30T07:42:39;15.27;;;4.70;;
59302;SDS011;45074;52.764;6.896;2023-07-30T07:45:05;16.70;;;5.15;;
59302;SDS011;45074;52.764;6.896;2023-07-30T07:47:32;16.45;;;5.15;;
59302;SDS011;45074;52.764;6.896;2023-07-30T07:49:58;14.52;;;5.28;;
59302;SDS011;45074;52.764;6.896;2023-07-30T07:52:24;15.52;;;5.38;;
59302;SDS011;45074;52.764;6.896;2023-07-30T07:54:50;13.75;;;5.40;;
59302;SDS011;45074;52.764;6.896;2023-07-30T07:57:16;14.45;;;5.50;;
59302;SDS011;45074;52.764;6.896;2023-07-30T07:59:42;13.90;;;5.43;;
59302;SDS011;45074;52.764;6.896;2023-07-30T08:02:10;17.02;;;4.82;;
59302;SDS011;45074;52.764;6.896;2023-07-30T08:04:37;15.73;;;5.50;;
59302;SDS011;45074;52.764;6.896;2023-07-30T08:07:04;16.92;;;5.28;;
59302;SDS011;45074;52.764;6.896;2023-07-30T08:09:30;17.23;;;5.53;;
59302;SDS011;45074;52.764;6.896;2023-07-30T08:11:56;14.13;;;4.60;;
59302;SDS011;45074;52.764;6.896;2023-07-30T08:14:22;16.92;;;4.80;;
59302;SDS011;45074;52.764;6.896;2023-07-30T08:16:48;14.48;;;4.70;;
59302;SDS011;45074;52.764;6.896;2023-07-30T08:19:14;13.95;;;4.53;;
59302;SDS011;45074;52.764;6.896;2023-07-30T08:21:40;14.50;;;4.45;;
59302;SDS011;45074;52.764;6.896;2023-07-30T08:24:06;16.35;;;4.40;;
59302;SDS011;45074;52.764;6.896;2023-07-30T08:26:32;11.02;;;4.60;;
59302;SDS011;45074;52.764;6.896;2023-07-30T08:28:58;16.33;;;5.32;;
59302;SDS011;45074;52.764;6.896;2023-07-30T08:31:24;14.52;;;4.82;;
59302;SDS011;45074;52.764;6.896;2023-07-30T08:33:50;15.95;;;4.93;;
59302;SDS011;45074;52.764;6.896;2023-07-30T08:36:16;14.07;;;4.65;;
59302;SDS011;45074;52.764;6.896;2023-07-30T08:38:42;13.95;;;4.70;;
59302;SDS011;45074;52.764;6.896;2023-07-30T08:41:08;14.32;;;4.57;;
59302;SDS011;45074;52.764;6.896;2023-07-30T08:43:35;17.35;;;5.30;;
59302;SDS011;45074;52.764;6.896;2023-07-30T08:46:01;15.52;;;5.00;;
59302;SDS011;45074;52.764;6.896;2023-07-30T08:48:27;12.38;;;4.60;;
59302;SDS011;45074;52.764;6.896;2023-07-30T08:50:56;14.85;;;4.50;;
59302;SDS011;45074;52.764;6.896;2023-07-30T08:53:25;13.32;;;4.45;;
59302;SDS011;45074;52.764;6.896;2023-07-30T08:55:52;14.32;;;4.68;;
59302;SDS011;45074;52.764;6.896;2023-07-30T08:58:19;14.02;;;4.70;;
59302;SDS011;45074;52.764;6.896;2023-07-30T09:00:45;12.98;;;4.45;;
59302;SDS011;45074;52.764;6.896;2023-07-30T09:03:14;11.82;;;4.35;;
59302;SDS011;45074;52.764;6.896;2023-07-30T09:05:42;12.38;;;5.32;;
59302;SDS011;45074;52.764;6.896;2023-07-30T09:08:08;14.32;;;4.55;;
59302;SDS011;45074;52.764;6.896;2023-07-30T09:10:34;12.48;;;4.45;;
59302;SDS011;45074;52.764;6.896;2023-07-30T09:13:01;10.95;;;4.75;;
59302;SDS011;45074;52.764;6.896;2023-07-30T09:15:31;13.45;;;6.13;;
59302;SDS011;45074;52.764;6.896;2023-07-30T09:17:58;15.52;;;5.18;;
59302;SDS011;45074;52.764;6.896;2023-07-30T09:20:24;12.77;;;5.07;;
59302;SDS011;45074;52.764;6.896;2023-07-30T09:22:51;14.25;;;5.47;;
59302;SDS011;45074;52.764;6.896;2023-07-30T09:25:20;14.45;;;5.10;;
59302;SDS011;45074;52.764;6.896;2023-07-30T09:27:52;14.82;;;7.10;;
59302;SDS011;45074;52.764;6.896;2023-07-30T09:30:21;15.25;;;6.75;;
59302;SDS011;45074;52.764;6.896;2023-07-30T09:35:18;15.55;;;6.00;;
59302;SDS011;45074;52.764;6.896;2023-07-30T09:37:44;13.63;;;4.63;;
59302;SDS011;45074;52.764;6.896;2023-07-30T09:40:11;13.07;;;5.07;;
59302;SDS011;45074;52.764;6.896;2023-07-30T09:42:38;11.98;;;5.22;;
59302;SDS011;45074;52.764;6.896;2023-07-30T09:45:05;14.98;;;5.10;;
59302;SDS011;45074;52.764;6.896;2023-07-30T09:47:36;15.70;;;5.83;;
59302;SDS011;45074;52.764;6.896;2023-07-30T09:50:02;14.15;;;5.03;;
59302;SDS011;45074;52.764;6.896;2023-07-30T09:52:31;17.17;;;4.97;;
59302;SDS011;45074;52.764;6.896;2023-07-30T09:54:57;11.27;;;4.90;;
59302;SDS011;45074;52.764;6.896;2023-07-30T09:57:23;13.25;;;5.65;;
59302;SDS011;45074;52.764;6.896;2023-07-30T09:59:49;15.30;;;6.45;;
59302;SDS011;45074;52.764;6.896;2023-07-30T10:02:15;15.00;;;6.55;;
59302;SDS011;45074;52.764;6.896;2023-07-30T10:04:42;14.73;;;6.70;;
59302;SDS011;45074;52.764;6.896;2023-07-30T10:07:10;15.48;;;5.32;;
59302;SDS011;45074;52.764;6.896;2023-07-30T10:09:42;13.20;;;5.88;;
59302;SDS011;45074;52.764;6.896;2023-07-30T10:12:16;12.40;;;5.53;;
59302;SDS011;45074;52.764;6.896;2023-07-30T10:14:43;12.05;;;4.65;;
59302;SDS011;45074;52.764;6.896;2023-07-30T10:17:10;13.00;;;4.70;;
59302;SDS011;45074;52.764;6.896;2023-07-30T10:19:36;12.13;;;3.97;;
59302;SDS011;45074;52.764;6.896;2023-07-30T10:24:55;12.50;;;4.45;;
59302;SDS011;45074;52.764;6.896;2023-07-30T10:27:26;8.60;;;4.28;;
59302;SDS011;45074;52.764;6.896;2023-07-30T10:30:10;7.15;;;3.63;;
59302;SDS011;45074;52.764;6.896;2023-07-30T10:38:15;6.22;;;2.45;;
59302;SDS011;45074;52.764;6.896;2023-07-30T10:43:41;11.43;;;3.15;;
59302;SDS011;45074;52.764;6.896;2023-07-30T10:46:09;6.68;;;2.00;;
59302;SDS011;45074;52.764;6.896;2023-07-30T10:48:37;6.97;;;2.20;;
59302;SDS011;45074;52.764;6.896;2023-07-30T10:51:12;6.60;;;2.92;;
59302;SDS011;45074;52.764;6.896;2023-07-30T10:53:41;7.47;;;2.42;;
59302;SDS011;45074;52.764;6.896;2023-07-30T10:56:08;7.20;;;2.63;;
59302;SDS011;45074;52.764;6.896;2023-07-30T10:58:35;6.97;;;1.85;;
59302;SDS011;45074;52.764;6.896;2023-07-30T11:01:02;6.97;;;2.25;;
59302;SDS011;45074;52.764;6.896;2023-07-30T11:03:28;6.03;;;2.15;;
59302;SDS011;45074;52.764;6.896;2023-07-30T11:05:56;6.05;;;1.77;;
59302;SDS011;45074;52.764;6.896;2023-07-30T11:08:35;5.95;;;1.92;;
59302;SDS011;45074;52.764;6.896;2023-07-30T11:11:02;5.63;;;2.40;;
59302;SDS011;45074;52.764;6.896;2023-07-30T11:13:29;6.50;;;2.45;;
59302;SDS011;45074;52.764;6.896;2023-07-30T11:15:55;7.95;;;2.65;;
59302;SDS011;45074;52.764;6.896;2023-07-30T11:18:21;7.93;;;2.75;;
59302;SDS011;45074;52.764;6.896;2023-07-30T11:20:47;8.07;;;2.80;;
59302;SDS011;45074;52.764;6.896;2023-07-30T11:23:19;9.20;;;2.20;;
59302;SDS011;45074;52.764;6.896;2023-07-30T11:28:13;7.68;;;2.35;;
59302;SDS011;45074;52.764;6.896;2023-07-30T11:30:39;7.55;;;1.85;;
59302;SDS011;45074;52.764;6.896;2023-07-30T11:33:05;8.38;;;2.90;;
59302;SDS011;45074;52.764;6.896;2023-07-30T11:35:31;10.20;;;2.55;;
59302;SDS011;45074;52.764;6.896;2023-07-30T11:37:57;7.70;;;2.70;;
59302;SDS011;45074;52.764;6.896;2023-07-30T11:40:23;9.35;;;2.08;;
59302;SDS011;45074;52.764;6.896;2023-07-30T11:42:49;8.18;;;2.90;;
59302;SDS011;45074;52.764;6.896;2023-07-30T11:45:22;7.68;;;3.45;;
59302;SDS011;45074;52.764;6.896;2023-07-30T11:47:48;7.00;;;3.15;;
59302;SDS011;45074;52.764;6.896;2023-07-30T11:50:15;7.50;;;3.20;;
59302;SDS011;45074;52.764;6.896;2023-07-30T11:52:51;8.75;;;1.92;;
59302;SDS011;45074;52.764;6.896;2023-07-30T11:55:18;5.95;;;1.77;;
59302;SDS011;45074;52.764;6.896;2023-07-30T11:57:44;11.13;;;1.92;;
59302;SDS011;45074;52.764;6.896;2023-07-30T12:00:11;8.57;;;1.90;;
59302;SDS011;45074;52.764;6.896;2023-07-30T12:02:37;6.82;;;1.60;;
59302;SDS011;45074;52.764;6.896;2023-07-30T12:05:04;5.85;;;1.83;;
59302;SDS011;45074;52.764;6.896;2023-07-30T12:07:31;7.25;;;1.85;;
59302;SDS011;45074;52.764;6.896;2023-07-30T12:10:10;5.70;;;1.50;;
59302;SDS011;45074;52.764;6.896;2023-07-30T12:12:43;7.28;;;1.73;;
59302;SDS011;45074;52.764;6.896;2023-07-30T12:15:10;6.47;;;2.20;;
59302;SDS011;45074;52.764;6.896;2023-07-30T12:17:39;6.43;;;1.40;;
59302;SDS011;45074;52.764;6.896;2023-07-30T12:20:05;6.88;;;1.58;;
59302;SDS011;45074;52.764;6.896;2023-07-30T12:22:32;6.05;;;1.30;;
59302;SDS011;45074;52.764;6.896;2023-07-30T12:25:03;7.50;;;1.70;;
59302;SDS011;45074;52.764;6.896;2023-07-30T12:27:29;6.88;;;1.50;;
59302;SDS011;45074;52.764;6.896;2023-07-30T12:29:55;5.50;;;1.67;;
59302;SDS011;45074;52.764;6.896;2023-07-30T12:32:21;5.65;;;1.48;;
59302;SDS011;45074;52.764;6.896;2023-07-30T12:34:46;6.50;;;1.50;;
59302;SDS011;45074;52.764;6.896;2023-07-30T12:37:12;6.63;;;4.55;;
59302;SDS011;45074;52.764;6.896;2023-07-30T12:39:38;7.63;;;1.58;;
59302;SDS011;45074;52.764;6.896;2023-07-30T12:42:03;5.63;;;1.30;;
59302;SDS011;45074;52.764;6.896;2023-07-30T12:44:29;6.72;;;1.50;;
59302;SDS011;45074;52.764;6.896;2023-07-30T12:46:54;6.10;;;1.67;;
59302;SDS011;45074;52.764;6.896;2023-07-30T12:49:20;8.52;;;2.03;;
59302;SDS011;45074;52.764;6.896;2023-07-30T12:51:46;7.25;;;1.80;;
59302;SDS011;45074;52.764;6.896;2023-07-30T12:54:12;6.80;;;1.50;;
59302;SDS011;45074;52.764;6.896;2023-07-30T12:56:38;6.35;;;1.50;;
59302;SDS011;45074;52.764;6.896;2023-07-30T12:59:04;5.95;;;1.45;;
59302;SDS011;45074;52.764;6.896;2023-07-30T13:01:30;6.82;;;1.52;;
59302;SDS011;45074;52.764;6.896;2023-07-30T13:03:56;5.32;;;1.67;;
59302;SDS011;45074;52.764;6.896;2023-07-30T13:06:22;5.53;;;1.70;;
59302;SDS011;45074;52.764;6.896;2023-07-30T13:08:48;4.68;;;1.25;;
59302;SDS011;45074;52.764;6.896;2023-07-30T13:11:14;6.53;;;1.60;;
59302;SDS011;45074;52.764;6.896;2023-07-30T13:13:40;5.97;;;1.50;;
59302;SDS011;45074;52.764;6.896;2023-07-30T13:16:06;6.20;;;1.30;;
59302;SDS011;45074;52.764;6.896;2023-07-30T13:18:32;4.65;;;1.40;;
59302;SDS011;45074;52.764;6.896;2023-07-30T13:20:57;4.57;;;1.20;;
59302;SDS011;45074;52.764;6.896;2023-07-30T13:23:23;6.00;;;1.30;;
59302;SDS011;45074;52.764;6.896;2023-07-30T13:25:54;5.75;;;1.40;;
59302;SDS011;45074;52.764;6.896;2023-07-30T13:28:20;6.35;;;1.52;;
59302;SDS011;45074;52.764;6.896;2023-07-30T13:30:46;9.15;;;1.63;;
59302;SDS011;45074;52.764;6.896;2023-07-30T13:33:12;6.45;;;1.50;;
59302;SDS011;45074;52.764;6.896;2023-07-30T13:35:38;8.15;;;1.67;;
59302;SDS011;45074;52.764;6.896;2023-07-30T13:38:04;6.10;;;1.48;;
59302;SDS011;45074;52.764;6.896;2023-07-30T13:40:30;7.88;;;1.80;;
59302;SDS011;45074;52.764;6.896;2023-07-30T13:42:56;6.57;;;1.60;;
59302;SDS011;45074;52.764;6.896;2023-07-30T13:45:22;5.07;;;1.40;;
59302;SDS011;45074;52.764;6.896;2023-07-30T13:47:48;6.22;;;1.63;;
59302;SDS011;45074;52.764;6.896;2023-07-30T13:50:13;8.52;;;1.80;;
59302;SDS011;45074;52.764;6.896;2023-07-30T13:52:39;8.68;;;1.70;;
59302;SDS011;45074;52.764;6.896;2023-07-30T13:55:04;7.00;;;2.28;;
59302;SDS011;45074;52.764;6.896;2023-07-30T13:57:30;9.48;;;1.77;;
59302;SDS011;45074;52.764;6.896;2023-07-30T13:59:56;6.97;;;1.63;;
59302;SDS011;45074;52.764;6.896;2023-07-30T14:02:22;8.63;;;1.77;;
59302;SDS011;45074;52.764;6.896;2023-07-30T14:04:48;6.85;;;1.77;;
59302;SDS011;45074;52.764;6.896;2023-07-30T14:07:14;5.25;;;1.40;;
59302;SDS011;45074;52.764;6.896;2023-07-30T14:09:40;7.22;;;1.83;;
59302;SDS011;45074;52.764;6.896;2023-07-30T14:12:08;7.30;;;3.15;;
59302;SDS011;45074;52.764;6.896;2023-07-30T14:14:34;7.88;;;2.33;;
59302;SDS011;45074;52.764;6.896;2023-07-30T14:17:00;5.53;;;1.85;;
59302;SDS011;45074;52.764;6.896;2023-07-30T14:19:31;5.53;;;1.67;;
59302;SDS011;45074;52.764;6.896;2023-07-30T14:21:57;6.40;;;1.40;;
59302;SDS011;45074;52.764;6.896;2023-07-30T14:24:23;8.60;;;1.70;;
59302;SDS011;45074;52.764;6.896;2023-07-30T14:26:49;6.60;;;1.55;;
59302;SDS011;45074;52.764;6.896;2023-07-30T14:29:15;9.35;;;6.03;;
59302;SDS011;45074;52.764;6.896;2023-07-30T14:31:42;5.68;;;1.38;;
59302;SDS011;45074;52.764;6.896;2023-07-30T14:34:08;5.78;;;1.58;;
59302;SDS011;45074;52.764;6.896;2023-07-30T14:36:34;7.35;;;1.67;;
59302;SDS011;45074;52.764;6.896;2023-07-30T14:39:00;9.65;;;7.68;;
59302;SDS011;45074;52.764;6.896;2023-07-30T14:41:25;5.50;;;1.40;;
59302;SDS011;45074;52.764;6.896;2023-07-30T14:43:51;3.78;;;1.00;;
59302;SDS011;45074;52.764;6.896;2023-07-30T14:46:17;5.70;;;1.30;;
59302;SDS011;45074;52.764;6.896;2023-07-30T14:48:43;4.55;;;1.60;;
59302;SDS011;45074;52.764;6.896;2023-07-30T14:51:09;6.32;;;1.40;;
59302;SDS011;45074;52.764;6.896;2023-07-30T14:53:35;3.75;;;1.10;;